Cotton Center, Texas
Current Conditions -  °F | °C
As of 3:15 AM on Wednesday 28 Jan 2015 (Local Time) from KPVW Reporting Station
Clear Clear  
Wind Chill: 35°   Ceiling: Unl
Heat Index: 41°   Visibility: 10mi
Dew Point: 34°   Wind: 9mph
Humidity: 76%   Direction: 260°W
Pressure: 30.08"   Gusts: NA
Location:  33.99°N, 101.99°W
Report Text: KPVW 280915Z AUTO 26008KT 10SM CLR 05/01 A3008 RMK AO2 T00500010
Loading
Personal Weather Stations






























Interactive Weather Map New forecast layout! Learn more

10-Day Weather Forecast

Advertisements
Track Severe Weather on mobile